createdAt,value
2018-08-24T00:00:14.702Z,82.10
2018-08-24T00:02:44.783Z,82.10
2018-08-24T00:05:14.597Z,84.70
2018-08-24T00:07:44.564Z,85.40
2018-08-24T00:10:14.536Z,86.60
2018-08-24T00:12:44.383Z,87.40
2018-08-24T00:15:14.273Z,88.70
2018-08-24T00:17:48.433Z,90.50
2018-08-24T00:20:18.913Z,91.10
2018-08-24T00:22:48.777Z,91.50
2018-08-24T00:25:18.842Z,92.10
2018-08-24T00:27:55.457Z,92.60
2018-08-24T00:30:25.449Z,92.50
2018-08-24T00:32:55.414Z,92.60
2018-08-24T00:35:25.338Z,93.10
2018-08-24T00:37:54.977Z,92.70
2018-08-24T00:40:25.047Z,92.50
2018-08-24T00:42:54.987Z,93.30
2018-08-24T00:45:25.148Z,92.70
2018-08-24T00:47:56.057Z,92.20
2018-08-24T00:50:26.024Z,92.60
2018-08-24T00:52:56.174Z,92.60
2018-08-24T00:55:26.173Z,92.70
2018-08-24T00:57:56.128Z,92.30
2018-08-24T01:01:29.832Z,93.00
2018-08-24T01:03:59.691Z,93.30
2018-08-24T01:06:29.569Z,93.20
2018-08-24T01:08:59.444Z,94.10
2018-08-24T01:11:34.448Z,94.70
2018-08-24T01:14:04.293Z,96.20
2018-08-24T01:16:39.176Z,97.20
2018-08-24T01:19:09.096Z,97.50
2018-08-24T01:21:38.869Z,98.20
2018-08-24T01:24:08.788Z,99.00
2018-08-24T01:26:38.837Z,99.40
2018-08-24T01:29:08.869Z,99.10
2018-08-24T01:31:38.950Z,98.60
2018-08-24T01:34:08.798Z,97.70
2018-08-24T01:36:38.802Z,97.00
2018-08-24T01:39:09.313Z,97.30
2018-08-24T01:41:39.143Z,96.30
2018-08-24T01:44:08.984Z,96.30
2018-08-24T01:46:38.964Z,96.10
2018-08-24T01:49:08.701Z,95.80
2018-08-24T01:51:38.497Z,96.20
2018-08-24T01:54:08.285Z,96.50
2018-08-24T01:56:38.234Z,96.40
2018-08-24T01:59:08.425Z,96.20
2018-08-24T02:01:38.459Z,95.80
2018-08-24T02:04:08.461Z,95.90
2018-08-24T02:06:38.533Z,95.40
2018-08-24T02:09:13.078Z,95.90
2018-08-24T02:11:42.972Z,95.30
2018-08-24T02:14:17.960Z,95.50
2018-08-24T02:16:48.143Z,95.40
2018-08-24T02:19:18.099Z,95.40
2018-08-24T02:21:53.013Z,95.00
2018-08-24T02:24:22.715Z,95.90
2018-08-24T02:26:52.513Z,96.50
2018-08-24T02:29:22.480Z,96.60
2018-08-24T02:31:52.374Z,96.40
2018-08-24T02:34:22.072Z,95.90
2018-08-24T02:36:52.345Z,95.80
2018-08-24T02:39:22.107Z,96.10
2018-08-24T02:41:52.079Z,95.80
2018-08-24T02:44:22.062Z,96.10
2018-08-24T02:46:52.040Z,95.90
2018-08-24T02:49:21.962Z,95.70
2018-08-24T02:51:51.876Z,96.00
2018-08-24T02:54:21.792Z,96.30
2018-08-24T02:56:51.648Z,96.80
2018-08-24T02:59:21.635Z,97.20
2018-08-24T03:01:51.559Z,97.20
2018-08-24T03:04:21.726Z,97.30
2018-08-24T03:06:51.664Z,96.50
2018-08-24T03:09:21.573Z,96.70
2018-08-24T03:11:51.291Z,96.30
2018-08-24T03:14:21.329Z,96.10
2018-08-24T03:16:56.249Z,96.10
2018-08-24T03:19:26.141Z,95.70
2018-08-24T03:21:56.059Z,95.80
2018-08-24T03:24:25.938Z,95.40
2018-08-24T03:26:55.774Z,95.80
2018-08-24T03:29:25.933Z,96.10
2018-08-24T03:31:55.668Z,96.90
2018-08-24T03:34:25.703Z,96.60
2018-08-24T03:36:55.841Z,96.90
2018-08-24T03:39:25.811Z,97.10
2018-08-24T03:41:55.852Z,97.30
2018-08-24T03:44:25.925Z,97.80
2018-08-24T03:46:55.673Z,97.70
2018-08-24T03:49:25.721Z,97.10
2018-08-24T03:51:55.738Z,96.80
2018-08-24T03:54:25.583Z,96.80
2018-08-24T04:03:07.513Z,96.50
2018-08-24T04:05:37.456Z,95.60
2018-08-24T04:08:07.697Z,96.70
2018-08-24T04:10:37.733Z,96.70
2018-08-24T04:13:07.646Z,97.30
2018-08-24T04:15:38.515Z,98.00
2018-08-24T04:23:02.900Z,96.30
2018-08-24T04:25:33.210Z,94.70
2018-08-24T04:28:03.075Z,95.20
2018-08-24T04:30:33.229Z,95.20
2018-08-24T04:33:03.140Z,95.20
2018-08-24T04:35:32.942Z,95.70
2018-08-24T04:38:02.887Z,96.70
2018-08-24T04:40:32.593Z,97.30
2018-08-24T04:43:02.316Z,96.60
2018-08-24T04:45:32.306Z,95.80
2018-08-24T04:48:02.120Z,96.40
2018-08-24T04:50:31.834Z,97.00
2018-08-24T04:53:01.462Z,96.70
2018-08-24T04:55:31.272Z,97.40
2018-08-24T04:58:01.032Z,97.70
2018-08-24T05:00:30.862Z,97.30
2018-08-24T05:03:01.698Z,97.00
2018-08-24T05:05:31.587Z,97.40
2018-08-24T05:08:01.375Z,97.30
2018-08-24T05:10:31.222Z,98.30
2018-08-24T05:13:01.248Z,98.70
2018-08-24T05:15:30.976Z,97.70
2018-08-24T05:18:01.125Z,97.00
2018-08-24T05:20:31.177Z,96.40
2018-08-24T05:23:01.102Z,96.10
2018-08-24T05:25:31.026Z,95.90
2018-08-24T05:28:00.919Z,96.50
2018-08-24T05:30:30.795Z,96.00
2018-08-24T05:33:00.839Z,95.90
2018-08-24T05:35:31.168Z,96.10
2018-08-24T05:38:01.182Z,96.80
2018-08-24T05:40:31.132Z,96.50
2018-08-24T05:43:01.023Z,96.70
2018-08-24T05:45:31.116Z,96.30
2018-08-24T05:48:01.036Z,95.90
2018-08-24T05:50:30.908Z,95.80
2018-08-24T05:53:00.956Z,95.40
2018-08-24T05:55:30.805Z,95.60
2018-08-24T05:58:00.740Z,95.60
2018-08-24T06:00:35.818Z,95.20
2018-08-24T06:03:05.812Z,96.00
2018-08-24T06:05:35.630Z,95.90
2018-08-24T06:08:05.312Z,95.30
2018-08-24T06:10:35.299Z,96.10
2018-08-24T06:13:05.965Z,95.20
2018-08-24T06:15:35.744Z,95.40
2018-08-24T06:18:06.826Z,94.90
2018-08-24T06:25:29.637Z,95.20
2018-08-24T06:27:59.563Z,95.60
2018-08-24T06:30:29.577Z,95.60
2018-08-24T06:32:59.568Z,96.30
2018-08-24T06:35:29.508Z,95.50
2018-08-24T06:37:59.421Z,95.60
2018-08-24T06:40:29.430Z,95.00
2018-08-24T06:42:59.429Z,94.70
2018-08-24T06:45:29.449Z,95.40
2018-08-24T06:47:59.367Z,95.00
2018-08-24T06:50:29.192Z,95.40
2018-08-24T06:52:59.461Z,94.90
2018-08-24T06:55:29.787Z,95.60
2018-08-24T06:57:59.847Z,95.00
2018-08-24T07:00:30.582Z,94.60
2018-08-24T07:03:01.753Z,94.70
2018-08-24T07:05:31.883Z,95.10
2018-08-24T07:08:01.644Z,95.70
2018-08-24T07:10:32.638Z,95.60
2018-08-24T07:13:03.589Z,95.70
2018-08-24T07:15:33.637Z,95.30
2018-08-24T07:18:04.118Z,95.00
2018-08-24T07:20:34.159Z,94.50
2018-08-24T07:23:03.913Z,94.50
2018-08-24T07:25:34.827Z,95.10
2018-08-24T07:28:04.828Z,95.50
2018-08-24T07:30:34.743Z,94.70
2018-08-24T07:33:05.478Z,94.20
2018-08-24T07:35:35.637Z,94.30
2018-08-24T07:38:05.823Z,94.30
2018-08-24T07:40:36.943Z,94.30
2018-08-24T07:43:06.873Z,94.30
2018-08-24T07:45:36.829Z,94.50
2018-08-24T07:48:07.038Z,95.10
2018-08-24T07:50:37.081Z,96.00
2018-08-24T07:53:07.150Z,97.90
2018-08-24T07:55:37.052Z,98.90
2018-08-24T07:58:08.582Z,98.10
2018-08-24T08:00:38.659Z,97.60
2018-08-24T08:03:08.555Z,97.80
2018-08-24T08:05:38.569Z,98.00
2018-08-24T08:08:08.503Z,97.90
2018-08-24T08:10:39.282Z,98.10
2018-08-24T08:13:10.883Z,98.00
2018-08-24T08:15:41.409Z,98.00
2018-08-24T08:18:12.034Z,98.20
2018-08-24T08:20:41.998Z,96.90
2018-08-24T08:23:13.285Z,97.50
2018-08-24T08:25:43.273Z,97.80
2018-08-24T08:28:13.214Z,96.70
2018-08-24T08:30:43.147Z,95.60
2018-08-24T08:33:13.263Z,96.10
2018-08-24T08:35:43.247Z,94.00
2018-08-24T08:38:13.204Z,93.70
2018-08-24T08:40:43.146Z,93.50
2018-08-24T08:48:05.683Z,94.00
2018-08-24T08:50:35.534Z,93.50
2018-08-24T08:53:05.616Z,93.80
2018-08-24T08:55:35.644Z,94.30
2018-08-24T08:58:06.171Z,94.70
2018-08-24T09:00:36.822Z,95.30
2018-08-24T09:03:06.769Z,94.70
2018-08-24T09:05:37.585Z,94.30
2018-08-24T09:08:08.620Z,94.00
2018-08-24T09:10:38.716Z,94.50
2018-08-24T09:13:08.643Z,93.50
2018-08-24T09:15:38.779Z,92.70
2018-08-24T09:18:13.709Z,92.10
2018-08-24T09:20:48.504Z,92.10
2018-08-24T09:23:23.502Z,92.40
2018-08-24T09:25:58.579Z,92.80
2018-08-24T09:28:37.506Z,92.00
2018-08-24T09:31:13.405Z,92.40
2018-08-24T09:33:43.271Z,90.50
2018-08-24T09:36:19.184Z,91.40
2018-08-24T09:38:49.893Z,90.70
2018-08-24T09:41:19.884Z,90.90
2018-08-24T09:43:55.028Z,91.10
2018-08-24T09:46:29.965Z,89.70
2018-08-24T09:49:04.917Z,82.40
2018-08-24T09:51:34.873Z,83.30
2018-08-24T09:54:09.194Z,82.00
2018-08-24T09:56:40.936Z,80.10
2018-08-24T09:59:11.074Z,82.60
2018-08-24T10:01:46.162Z,81.60
2018-08-24T10:04:21.398Z,82.10
2018-08-24T10:06:56.659Z,82.50
2018-08-24T10:09:26.704Z,80.30
2018-08-24T10:11:56.624Z,79.60
2018-08-24T10:14:26.733Z,78.10
2018-08-24T10:16:56.763Z,78.40
2018-08-24T10:19:26.743Z,74.80
2018-08-24T10:21:56.554Z,74.30
2018-08-24T10:24:26.439Z,73.40
2018-08-24T10:26:56.402Z,72.70
2018-08-24T10:29:26.281Z,74.20
2018-08-24T10:31:56.145Z,73.00
2018-08-24T10:34:25.993Z,71.20
2018-08-24T10:36:55.760Z,71.40
2018-08-24T10:39:25.645Z,70.10
2018-08-24T10:41:55.514Z,67.80
2018-08-24T10:44:25.289Z,64.20
2018-08-24T10:46:55.149Z,64.30
2018-08-24T10:49:25.179Z,64.30
2018-08-24T10:51:55.098Z,63.70
2018-08-24T10:54:24.878Z,64.40
2018-08-24T10:56:54.769Z,63.60
2018-08-24T10:59:25.225Z,61.50
2018-08-24T11:06:53.293Z,60.80
2018-08-24T11:09:23.298Z,59.20
2018-08-24T11:11:53.141Z,58.30
2018-08-24T11:14:23.122Z,55.20
2018-08-24T11:16:53.303Z,52.50
2018-08-24T11:19:23.248Z,52.80
2018-08-24T11:21:53.506Z,52.70
2018-08-24T11:24:23.344Z,51.90
2018-08-24T11:26:53.299Z,51.50
2018-08-24T11:29:23.132Z,51.10
2018-08-24T11:31:53.101Z,51.60
2018-08-24T11:34:23.193Z,49.30
2018-08-24T11:36:53.463Z,49.20
2018-08-24T11:39:23.634Z,47.20
2018-08-24T11:41:53.674Z,46.80
2018-08-24T11:44:23.570Z,46.80
2018-08-24T11:46:53.448Z,46.80
2018-08-24T11:49:23.449Z,47.80
2018-08-24T11:51:53.368Z,46.80
2018-08-24T11:54:23.372Z,47.20
2018-08-24T11:56:53.057Z,46.50
2018-08-24T11:59:22.975Z,46.50
2018-08-24T12:01:52.876Z,44.70
2018-08-24T12:04:22.745Z,44.50
2018-08-24T12:06:52.638Z,45.10
2018-08-24T12:09:22.484Z,44.70
2018-08-24T12:11:52.684Z,43.90
2018-08-24T12:14:22.790Z,44.10
2018-08-24T12:16:52.939Z,44.50
2018-08-24T12:19:23.028Z,44.50
2018-08-24T12:21:53.020Z,44.90
2018-08-24T12:24:22.979Z,42.90
2018-08-24T12:26:52.909Z,41.90
2018-08-24T12:29:22.949Z,43.40
2018-08-24T12:31:52.980Z,44.30
2018-08-24T12:34:23.111Z,44.30
2018-08-24T12:36:53.319Z,43.50
2018-08-24T12:39:23.417Z,42.60
2018-08-24T12:41:53.359Z,43.40
2018-08-24T12:44:23.403Z,44.30
2018-08-24T12:46:53.390Z,45.00
2018-08-24T12:49:23.566Z,45.60
2018-08-24T12:51:53.346Z,45.40
2018-08-24T12:54:23.236Z,45.00
2018-08-24T12:56:52.954Z,44.90
2018-08-24T12:59:23.211Z,43.80
2018-08-24T13:01:53.164Z,43.50
2018-08-24T13:04:23.134Z,43.00
2018-08-24T13:06:53.013Z,43.00
2018-08-24T13:09:23.232Z,43.60
2018-08-24T13:11:53.074Z,43.20
2018-08-24T13:14:23.254Z,43.70
2018-08-24T13:16:53.786Z,42.90
2018-08-24T13:19:23.916Z,43.00
2018-08-24T13:21:53.680Z,42.20
2018-08-24T13:24:23.514Z,41.60
2018-08-24T13:26:54.808Z,41.70
2018-08-24T13:29:24.877Z,41.30
2018-08-24T13:31:55.233Z,42.60
2018-08-24T13:34:25.325Z,42.20
2018-08-24T13:36:55.498Z,42.40
2018-08-24T13:39:25.515Z,41.90
2018-08-24T13:41:55.419Z,41.30
2018-08-24T13:44:25.309Z,41.20
2018-08-24T13:46:55.342Z,41.20
2018-08-24T13:49:25.383Z,42.40
2018-08-24T13:51:55.265Z,41.80
2018-08-24T13:54:25.351Z,40.10
2018-08-24T13:56:55.322Z,39.70
2018-08-24T13:59:25.468Z,40.30
2018-08-24T14:01:55.636Z,39.30
2018-08-24T14:04:25.521Z,38.40
2018-08-24T14:06:55.419Z,38.10
2018-08-24T14:09:25.295Z,39.10
2018-08-24T14:11:55.196Z,39.40
2018-08-24T14:14:25.287Z,38.60
2018-08-24T14:16:55.281Z,39.80
2018-08-24T14:19:25.466Z,40.80
2018-08-24T14:21:55.423Z,41.70
2018-08-24T14:24:25.439Z,42.30
2018-08-24T14:26:55.421Z,42.20
2018-08-24T14:29:25.471Z,42.80
2018-08-24T14:31:55.504Z,43.20
2018-08-24T14:34:25.409Z,43.70
2018-08-24T14:36:55.380Z,43.00
2018-08-24T14:39:25.286Z,43.90
2018-08-24T14:41:55.319Z,43.30
2018-08-24T14:44:25.340Z,43.50
2018-08-24T14:46:55.573Z,43.50
2018-08-24T14:49:25.862Z,43.50
2018-08-24T14:51:56.068Z,43.40
2018-08-24T14:54:26.283Z,42.20
2018-08-24T14:56:56.353Z,42.50
2018-08-24T14:59:26.518Z,43.10
2018-08-24T15:01:56.475Z,43.20
2018-08-24T15:04:26.583Z,42.50
2018-08-24T15:06:56.880Z,40.60
2018-08-24T15:09:26.869Z,41.40
2018-08-24T15:11:56.811Z,40.90
2018-08-24T15:14:26.665Z,40.30
2018-08-24T15:16:57.109Z,40.90
2018-08-24T15:19:26.973Z,41.30
2018-08-24T15:21:57.188Z,41.20
2018-08-24T15:24:27.212Z,41.80
2018-08-24T15:26:57.205Z,42.20
2018-08-24T15:29:27.300Z,42.80
2018-08-24T15:31:57.170Z,42.90
2018-08-24T15:34:27.044Z,42.70
2018-08-24T15:36:57.003Z,42.70
2018-08-24T15:39:27.189Z,42.80
2018-08-24T15:41:57.017Z,43.10
2018-08-24T15:44:27.099Z,43.40
2018-08-24T15:46:57.060Z,42.50
2018-08-24T15:49:26.819Z,42.90
2018-08-24T15:51:56.488Z,43.30
2018-08-24T15:54:26.384Z,42.40
2018-08-24T15:56:56.090Z,43.30
2018-08-24T15:59:26.613Z,43.20
2018-08-24T16:01:57.082Z,43.20
2018-08-24T16:04:28.015Z,42.90
2018-08-24T16:06:57.980Z,42.20
2018-08-24T16:09:27.906Z,42.80
2018-08-24T16:11:57.774Z,41.50
2018-08-24T16:14:27.840Z,39.90
2018-08-24T16:16:57.797Z,39.50
2018-08-24T16:19:27.707Z,38.90
2018-08-24T16:21:57.523Z,39.40
2018-08-24T16:24:27.486Z,39.00
2018-08-24T16:26:57.548Z,39.40
2018-08-24T16:29:27.576Z,38.80
2018-08-24T16:31:57.528Z,39.30
2018-08-24T16:34:27.622Z,39.30
2018-08-24T16:36:57.592Z,39.70
2018-08-24T16:39:27.603Z,39.90
2018-08-24T16:41:57.550Z,40.30
2018-08-24T16:44:27.502Z,40.40
2018-08-24T16:46:57.424Z,40.90
2018-08-24T16:49:27.375Z,40.90
2018-08-24T16:51:57.370Z,41.20
2018-08-24T16:54:27.424Z,41.20
2018-08-24T16:56:57.466Z,41.20
2018-08-24T16:59:27.294Z,41.20
2018-08-24T17:01:57.440Z,40.10
2018-08-24T17:04:27.221Z,40.00
2018-08-24T17:06:58.074Z,39.60
2018-08-24T17:09:28.867Z,40.10
2018-08-24T17:11:58.755Z,40.20
2018-08-24T17:14:28.751Z,40.70
2018-08-24T17:16:58.515Z,40.60
2018-08-24T17:19:28.349Z,40.50
2018-08-24T17:21:58.474Z,40.70
2018-08-24T17:24:31.340Z,40.50
2018-08-24T17:27:01.258Z,40.90
2018-08-24T17:29:31.535Z,41.20
2018-08-24T17:32:01.604Z,41.20
2018-08-24T17:34:31.522Z,42.20
2018-08-24T17:37:01.546Z,41.60
2018-08-24T17:39:31.509Z,41.70
2018-08-24T17:42:01.593Z,42.20
2018-08-24T17:44:31.578Z,42.20
2018-08-24T17:47:01.617Z,42.40
2018-08-24T17:49:31.666Z,42.40
2018-08-24T17:52:01.675Z,42.70
2018-08-24T17:54:31.801Z,42.80
2018-08-24T17:57:01.951Z,43.20
2018-08-24T17:59:32.147Z,43.20
2018-08-24T18:02:02.077Z,43.40
2018-08-24T18:04:32.150Z,43.80
2018-08-24T18:07:02.416Z,44.40
2018-08-24T18:09:32.494Z,44.90
2018-08-24T18:12:03.307Z,45.10
2018-08-24T18:14:34.514Z,45.10
2018-08-24T18:17:05.904Z,45.90
2018-08-24T18:24:28.634Z,46.80
2018-08-24T18:26:58.671Z,47.40
2018-08-24T18:29:28.842Z,47.00
2018-08-24T18:31:59.187Z,47.20
2018-08-24T18:34:29.384Z,47.70
2018-08-24T18:36:59.362Z,47.80
2018-08-24T18:39:29.436Z,48.20
2018-08-24T18:41:59.745Z,48.20
2018-08-24T18:44:30.589Z,48.20
2018-08-24T18:47:01.166Z,48.70
2018-08-24T18:49:31.424Z,48.30
2018-08-24T18:52:01.626Z,48.30
2018-08-24T18:54:31.959Z,48.10
2018-08-24T18:57:02.154Z,47.70
2018-08-24T18:59:32.544Z,48.10
2018-08-24T19:02:03.227Z,48.30
2018-08-24T19:04:33.120Z,48.90
2018-08-24T19:07:03.575Z,48.10
2018-08-24T19:09:33.820Z,48.20
2018-08-24T19:12:09.040Z,48.50
2018-08-24T19:14:39.201Z,48.70
2018-08-24T19:17:13.147Z,48.00
2018-08-24T19:19:48.304Z,48.10
2018-08-24T19:22:18.424Z,48.50
2018-08-24T19:24:48.697Z,48.40
2018-08-24T19:27:19.223Z,48.40
2018-08-24T19:29:54.702Z,48.60
2018-08-24T19:32:25.000Z,48.90
2018-08-24T19:34:55.345Z,49.00
2018-08-24T19:37:25.513Z,49.50
2018-08-24T19:40:00.507Z,48.80
2018-08-24T19:42:31.184Z,48.70
2018-08-24T19:45:01.219Z,48.40
2018-08-24T19:47:36.519Z,48.50
2018-08-24T19:50:06.910Z,48.60
2018-08-24T19:52:37.036Z,48.70
2018-08-24T19:55:07.112Z,48.70
2018-08-24T19:57:41.970Z,50.00
2018-08-24T20:00:12.100Z,49.20
2018-08-24T20:02:42.446Z,49.10
2018-08-24T20:05:12.465Z,49.60
2018-08-24T20:07:47.646Z,49.90
2018-08-24T20:10:18.434Z,51.00
2018-08-24T20:12:48.957Z,51.10
2018-08-24T20:15:24.817Z,51.90
2018-08-24T20:17:54.907Z,52.20
2018-08-24T20:20:25.239Z,52.40
2018-08-24T20:22:55.725Z,52.30
2018-08-24T20:25:25.844Z,52.30
2018-08-24T20:27:55.959Z,52.40
2018-08-24T20:30:25.885Z,52.50
2018-08-24T20:32:56.113Z,53.10
2018-08-24T20:35:26.238Z,53.00
2018-08-24T20:37:56.269Z,53.00
2018-08-24T20:40:26.454Z,53.20
2018-08-24T20:42:56.384Z,53.10
2018-08-24T20:45:26.607Z,53.40
2018-08-24T20:47:56.806Z,54.40
2018-08-24T20:50:26.967Z,54.60
2018-08-24T20:52:57.095Z,55.00
2018-08-24T20:55:27.146Z,55.20
2018-08-24T20:57:57.203Z,55.50
2018-08-24T21:00:27.567Z,56.70
2018-08-24T21:02:58.641Z,57.60
2018-08-24T21:05:28.460Z,57.40
2018-08-24T21:07:58.549Z,57.50
2018-08-24T21:10:28.724Z,57.00
2018-08-24T21:12:58.809Z,56.90
2018-08-24T21:15:28.830Z,56.10
2018-08-24T21:17:59.014Z,57.00
2018-08-24T21:20:29.042Z,57.60
2018-08-24T21:22:59.056Z,57.90
2018-08-24T21:25:29.137Z,58.20
2018-08-24T21:27:59.187Z,58.20
2018-08-24T21:30:29.124Z,58.50
2018-08-24T21:32:58.946Z,59.20
2018-08-24T21:35:28.855Z,59.10
2018-08-24T21:37:59.253Z,59.80
2018-08-24T21:40:29.297Z,59.90
2018-08-24T21:42:59.287Z,60.00
2018-08-24T21:45:29.392Z,59.80
2018-08-24T21:47:59.443Z,60.50
2018-08-24T21:50:29.416Z,60.50
2018-08-24T21:52:59.305Z,60.70
2018-08-24T21:55:29.409Z,61.50
2018-08-24T21:57:59.413Z,61.90
2018-08-24T22:00:29.257Z,61.40
2018-08-24T22:02:59.060Z,61.60
2018-08-24T22:05:29.877Z,61.40
2018-08-24T22:08:00.820Z,61.60
2018-08-24T22:10:30.868Z,62.30
2018-08-24T22:13:00.776Z,62.90
2018-08-24T22:15:30.956Z,63.00
2018-08-24T22:18:01.070Z,63.00
2018-08-24T22:20:31.148Z,62.20
2018-08-24T22:23:01.151Z,61.70
2018-08-24T22:25:31.334Z,62.00
2018-08-24T22:28:01.566Z,63.20
2018-08-24T22:30:31.630Z,61.90
2018-08-24T22:33:01.530Z,60.70
2018-08-24T22:35:31.509Z,60.80
2018-08-24T22:38:01.460Z,61.20
2018-08-24T22:40:31.393Z,61.90
2018-08-24T22:43:01.290Z,61.60
2018-08-24T22:45:31.151Z,61.90
2018-08-24T22:48:01.242Z,61.50
2018-08-24T22:50:31.334Z,60.90
2018-08-24T22:53:01.356Z,61.20
2018-08-24T22:55:31.464Z,62.30
2018-08-24T22:58:01.385Z,62.10
2018-08-24T23:00:31.280Z,61.80
2018-08-24T23:03:01.088Z,61.90
2018-08-24T23:05:30.851Z,61.70
2018-08-24T23:08:00.698Z,61.10
2018-08-24T23:10:30.489Z,61.50
2018-08-24T23:13:01.530Z,61.50
2018-08-24T23:15:32.415Z,61.10
2018-08-24T23:18:02.403Z,60.70
2018-08-24T23:20:32.291Z,60.70
2018-08-24T23:23:02.261Z,60.70
2018-08-24T23:25:32.282Z,60.80
2018-08-24T23:28:02.293Z,61.00
2018-08-24T23:30:32.322Z,60.40
2018-08-24T23:33:02.300Z,60.10
2018-08-24T23:35:32.192Z,59.70
2018-08-24T23:38:02.151Z,59.80
2018-08-24T23:40:32.016Z,60.00
2018-08-24T23:43:01.852Z,59.60
2018-08-24T23:45:31.756Z,58.90
2018-08-24T23:48:01.749Z,58.60
2018-08-24T23:50:31.640Z,57.60
2018-08-24T23:53:01.682Z,58.20
2018-08-24T23:55:31.719Z,57.10
2018-08-24T23:58:01.870Z,57.50
